Time;durP1;ratioP1;P1;durP2;ratioP2;P2;SDS_P1;SDS_P2;PMS_P1;PMS_P2;Temp;Humidity;BMP_temperature;BMP_pressure;BME280_temperature;BME280_humidity;BME280_pressure;Samples;Min_cycle;Max_cycle;Signal;HPM_P1;HPM_P2
2021/12/20 00:02:24;;;;;;;25.23;4.78;;;7.00;99.90;;;;;;5095596;28;20038;-72
2021/12/20 00:04:52;;;;;;;20.40;5.15;;;7.00;99.90;;;;;;5096875;28;20036;-72
2021/12/20 00:07:19;;;;;;;29.88;6.20;;;7.00;99.90;;;;;;5094998;28;20058;-72
2021/12/20 00:09:45;;;;;;;28.17;5.82;;;7.00;99.90;;;;;;5095395;28;20044;-72
2021/12/20 00:12:10;;;;;;;26.83;5.20;;;7.00;99.90;;;;;;5096564;28;20047;-72
2021/12/20 00:14:36;;;;;;;27.13;5.00;;;7.00;99.90;;;;;;5096634;28;20039;-72
2021/12/20 00:17:02;;;;;;;27.40;5.45;;;6.90;99.90;;;;;;5096392;28;20040;-72
2021/12/20 00:19:28;;;;;;;28.77;6.38;;;6.90;99.90;;;;;;5096778;28;20036;-72
2021/12/20 00:21:53;;;;;;;26.63;5.50;;;6.90;99.90;;;;;;5096813;28;20156;-72
2021/12/20 00:24:20;;;;;;;21.20;5.32;;;6.90;99.90;;;;;;5096543;28;20488;-72
2021/12/20 00:26:45;;;;;;;20.35;4.78;;;6.90;99.90;;;;;;5096005;28;20036;-72
2021/12/20 00:29:11;;;;;;;30.65;6.53;;;6.90;99.90;;;;;;5095501;28;20510;-72
2021/12/20 00:31:37;;;;;;;24.88;5.15;;;6.80;99.90;;;;;;5096286;28;20048;-72
2021/12/20 00:34:02;;;;;;;23.88;5.85;;;6.80;99.90;;;;;;5096585;28;20039;-72
2021/12/20 00:36:29;;;;;;;29.88;5.57;;;6.90;99.90;;;;;;5094464;28;20093;-72
2021/12/20 00:41:39;;;;;;;28.88;6.82;;;6.80;99.90;;;;;;5096182;28;20048;-72
2021/12/20 00:44:05;;;;;;;29.58;4.95;;;6.80;99.90;;;;;;5096545;28;20114;-72
2021/12/20 00:46:31;;;;;;;28.60;5.93;;;6.80;99.90;;;;;;5095862;28;20040;-72
2021/12/20 00:48:56;;;;;;;23.27;5.03;;;6.80;99.90;;;;;;5095063;28;20502;-72
2021/12/20 00:51:22;;;;;;;22.60;6.47;;;6.80;99.90;;;;;;5094774;28;20381;-72
2021/12/20 00:53:48;;;;;;;26.83;5.50;;;6.80;99.90;;;;;;5096185;28;20028;-72
2021/12/20 00:56:13;;;;;;;30.75;5.60;;;6.80;99.90;;;;;;5094758;28;20040;-72
2021/12/20 00:58:39;;;;;;;24.10;4.85;;;6.80;99.90;;;;;;5095743;28;20380;-72
2021/12/20 01:01:06;;;;;;;27.17;4.63;;;6.70;99.90;;;;;;5094318;28;20044;-72
2021/12/20 01:03:32;;;;;;;25.10;4.55;;;6.70;99.90;;;;;;5095626;28;20044;-72
2021/12/20 01:05:59;;;;;;;23.85;5.15;;;6.70;99.90;;;;;;5095255;28;20040;-72
2021/12/20 01:08:28;;;;;;;21.27;5.88;;;6.60;99.90;;;;;;5095069;28;20459;-71
2021/12/20 01:10:55;;;;;;;27.63;5.25;;;6.60;99.90;;;;;;5095968;28;20052;-71
2021/12/20 01:13:23;;;;;;;28.40;4.80;;;6.60;99.90;;;;;;5096015;28;20457;-71
2021/12/20 01:15:52;;;;;;;21.20;4.35;;;6.60;99.90;;;;;;5094127;28;20028;-71
2021/12/20 01:18:19;;;;;;;20.80;4.18;;;6.60;99.90;;;;;;5094005;28;20039;-72
2021/12/20 01:20:45;;;;;;;18.60;4.25;;;6.60;99.90;;;;;;5095833;28;20036;-72
2021/12/20 01:23:12;;;;;;;26.80;5.47;;;6.60;99.90;;;;;;5095530;28;20036;-72
2021/12/20 01:25:38;;;;;;;17.98;4.20;;;6.50;99.90;;;;;;5095133;28;20051;-72
2021/12/20 01:28:05;;;;;;;25.02;4.90;;;6.50;99.90;;;;;;5095115;28;20066;-72
2021/12/20 01:30:32;;;;;;;22.58;4.75;;;6.40;99.90;;;;;;5095439;28;20036;-72
2021/12/20 01:32:57;;;;;;;24.88;5.15;;;6.40;99.90;;;;;;5095481;28;20040;-72
2021/12/20 01:35:26;;;;;;;18.75;4.18;;;6.40;99.90;;;;;;5093792;28;20048;-72
2021/12/20 01:37:52;;;;;;;18.35;4.15;;;6.40;99.90;;;;;;5094561;28;20143;-72
2021/12/20 01:40:19;;;;;;;18.67;4.93;;;6.30;99.90;;;;;;5076820;28;20044;-72
2021/12/20 01:42:46;;;;;;;22.88;4.25;;;6.30;99.90;;;;;;5093579;28;20043;-72
2021/12/20 01:45:14;;;;;;;15.60;3.65;;;6.30;99.90;;;;;;5095063;28;20040;-72
2021/12/20 01:47:44;;;;;;;17.35;4.82;;;6.30;99.90;;;;;;5094412;28;20051;-72
2021/12/20 01:52:54;;;;;;;19.65;3.78;;;6.20;99.90;;;;;;5093407;28;20082;-72
2021/12/20 01:55:21;;;;;;;16.95;3.28;;;6.20;99.90;;;;;;5093722;28;20090;-72
2021/12/20 01:57:48;;;;;;;14.98;3.70;;;6.20;99.90;;;;;;5094446;28;20040;-72
2021/12/20 02:00:26;;;;;;;18.50;3.42;;;6.20;99.90;;;;;;5094852;28;20408;-72
2021/12/20 02:03:02;;;;;;;20.55;3.63;;;6.20;99.90;;;;;;5094553;28;20396;-72
2021/12/20 02:05:50;;;;;;;20.55;3.90;;;6.20;99.90;;;;;;5093232;28;20111;-72
2021/12/20 02:08:23;;;;;;;16.90;3.50;;;6.20;99.90;;;;;;5093264;28;20036;-72
2021/12/20 02:10:53;;;;;;;14.70;3.38;;;6.20;99.90;;;;;;5093210;28;20491;-72
2021/12/20 02:13:19;;;;;;;14.48;3.15;;;6.20;99.90;;;;;;5093067;28;20052;-72
2021/12/20 02:15:45;;;;;;;13.23;2.58;;;6.20;99.90;;;;;;5093876;28;20028;-72
2021/12/20 02:18:11;;;;;;;21.63;3.33;;;6.10;99.90;;;;;;5094123;28;20487;-72
2021/12/20 02:20:38;;;;;;;19.90;4.43;;;6.10;99.90;;;;;;5094608;28;20123;-72
2021/12/20 02:23:05;;;;;;;16.60;3.47;;;6.10;99.90;;;;;;5093113;28;20050;-72
2021/12/20 02:25:32;;;;;;;14.38;4.45;;;6.00;99.90;;;;;;5093755;28;20032;-72
2021/12/20 02:28:03;;;;;;;15.02;3.38;;;6.00;99.90;;;;;;5094444;28;20080;-72
2021/12/20 02:38:29;;;;;;;12.23;3.08;;;5.80;99.90;;;;;;5093867;28;20048;-72
2021/12/20 02:41:01;;;;;;;11.40;2.50;;;5.70;99.90;;;;;;5093894;28;20048;-72
2021/12/20 02:43:29;;;;;;;13.90;2.88;;;5.70;99.90;;;;;;5094196;28;20043;-72
2021/12/20 02:45:59;;;;;;;13.02;3.63;;;5.70;99.90;;;;;;5093647;28;20119;-72
2021/12/20 02:48:25;;;;;;;13.88;3.00;;;5.60;99.90;;;;;;5093819;28;20065;-72
2021/12/20 02:50:54;;;;;;;18.42;3.35;;;5.60;99.90;;;;;;5092530;28;20048;-72
2021/12/20 02:53:20;;;;;;;12.02;3.00;;;5.50;99.90;;;;;;5093714;28;20040;-72
2021/12/20 02:55:46;;;;;;;15.73;3.47;;;5.50;99.90;;;;;;5093983;28;20081;-72
2021/12/20 02:58:12;;;;;;;13.50;2.45;;;5.50;99.90;;;;;;5093716;28;20039;-72
2021/12/20 03:00:37;;;;;;;12.88;2.78;;;5.50;99.90;;;;;;5093619;28;20074;-72
2021/12/20 03:03:03;;;;;;;12.93;3.08;;;5.50;99.90;;;;;;5093529;28;20032;-72
2021/12/20 03:05:29;;;;;;;12.80;3.45;;;5.50;99.90;;;;;;5093254;28;20072;-72
2021/12/20 03:07:55;;;;;;;11.90;2.70;;;5.50;99.90;;;;;;5093375;28;20055;-72
2021/12/20 03:10:22;;;;;;;15.30;3.42;;;5.40;99.90;;;;;;5092244;28;20096;-72
2021/12/20 03:12:50;;;;;;;8.85;2.53;;;5.40;99.90;;;;;;5093835;28;20082;-72
2021/12/20 03:15:24;;;;;;;8.13;2.25;;;5.30;99.90;;;;;;5093577;28;20113;-72
2021/12/20 03:17:52;;;;;;;19.88;3.38;;;5.30;99.90;;;;;;5093260;28;20484;-72
2021/12/20 03:20:20;;;;;;;13.10;3.40;;;5.30;99.90;;;;;;5095648;28;20047;-71
2021/12/20 03:22:46;;;;;;;13.43;2.92;;;5.20;99.90;;;;;;5097646;28;20040;-71
2021/12/20 03:25:12;;;;;;;9.38;2.50;;;5.20;99.90;;;;;;5097466;28;20040;-71
2021/12/20 03:27:37;;;;;;;11.82;2.20;;;5.20;99.90;;;;;;5097246;28;20032;-71
2021/12/20 03:30:06;;;;;;;10.30;2.60;;;5.20;99.90;;;;;;5097761;28;20446;-71
2021/12/20 03:32:31;;;;;;;11.68;2.28;;;5.10;99.90;;;;;;5096803;28;20085;-71
2021/12/20 03:34:57;;;;;;;8.18;2.50;;;5.10;99.90;;;;;;5096136;28;20392;-71
2021/12/20 03:37:22;;;;;;;13.80;3.10;;;5.10;99.90;;;;;;5096865;28;20453;-71
2021/12/20 03:39:48;;;;;;;11.05;2.28;;;5.00;99.90;;;;;;5095882;28;20040;-71
2021/12/20 03:42:14;;;;;;;12.20;2.40;;;5.00;99.90;;;;;;5095873;28;20044;-71
2021/12/20 03:44:44;;;;;;;19.73;3.67;;;5.00;99.90;;;;;;5097306;28;20066;-72
2021/12/20 03:47:10;;;;;;;11.65;2.45;;;4.90;99.90;;;;;;5095601;28;20048;-72
2021/12/20 03:49:36;;;;;;;14.20;2.55;;;4.90;99.90;;;;;;5097267;28;20071;-72
2021/12/20 03:52:04;;;;;;;12.43;2.90;;;4.90;99.90;;;;;;5097261;28;20036;-72
2021/12/20 03:54:30;;;;;;;13.98;3.67;;;4.80;99.90;;;;;;5096869;28;20050;-72
2021/12/20 03:56:56;;;;;;;12.90;2.58;;;4.80;99.90;;;;;;5096603;28;20032;-72
2021/12/20 03:59:21;;;;;;;14.35;2.90;;;4.80;99.90;;;;;;5097435;28;20036;-72
2021/12/20 04:01:47;;;;;;;16.15;2.80;;;4.70;99.90;;;;;;5095811;28;20408;-72
2021/12/20 04:04:13;;;;;;;12.73;2.58;;;4.70;99.90;;;;;;5097100;28;20063;-72
2021/12/20 04:06:38;;;;;;;15.05;2.53;;;4.70;99.90;;;;;;5095157;28;20044;-72
2021/12/20 04:09:05;;;;;;;13.38;2.78;;;4.60;99.90;;;;;;5096975;28;20416;-72
2021/12/20 04:11:31;;;;;;;10.40;2.75;;;4.60;99.90;;;;;;5096677;28;20048;-72
2021/12/20 04:13:58;;;;;;;14.55;3.42;;;4.60;99.90;;;;;;5096575;28;20036;-72
2021/12/20 04:16:24;;;;;;;12.68;3.28;;;4.50;99.90;;;;;;5096285;28;20062;-72
2021/12/20 04:18:49;;;;;;;9.52;2.60;;;4.50;99.90;;;;;;5095080;28;20499;-72
2021/12/20 04:21:15;;;;;;;10.18;2.72;;;4.50;99.90;;;;;;5096340;28;20066;-72
2021/12/20 04:23:41;;;;;;;9.50;2.50;;;4.40;99.90;;;;;;5095145;28;20445;-72
2021/12/20 04:26:07;;;;;;;17.40;2.58;;;4.40;99.90;;;;;;5096396;28;20086;-72
2021/12/20 04:28:32;;;;;;;15.10;2.28;;;4.40;99.90;;;;;;5096147;28;20418;-72
2021/12/20 04:30:58;;;;;;;12.90;1.83;;;4.40;99.90;;;;;;5096248;28;20036;-72
2021/12/20 04:33:24;;;;;;;10.18;2.08;;;4.40;99.90;;;;;;5094987;28;20051;-72
2021/12/20 04:35:50;;;;;;;12.13;2.63;;;4.30;99.90;;;;;;5096344;28;20047;-72
2021/12/20 04:38:16;;;;;;;15.52;2.75;;;4.30;99.90;;;;;;5096221;28;20147;-72
2021/12/20 04:40:42;;;;;;;7.15;2.40;;;4.20;99.90;;;;;;5094901;28;20047;-73
2021/12/20 04:43:08;;;;;;;10.90;2.92;;;4.20;99.90;;;;;;5096070;28;20032;-72
2021/12/20 04:45:35;;;;;;;15.02;2.53;;;4.20;99.90;;;;;;5094490;28;20044;-72
2021/12/20 04:48:02;;;;;;;10.80;2.72;;;4.20;99.90;;;;;;5096056;28;20086;-72
2021/12/20 04:50:28;;;;;;;13.75;2.60;;;4.10;99.90;;;;;;5096546;28;20086;-72
2021/12/20 04:52:55;;;;;;;14.02;2.65;;;4.10;99.90;;;;;;5095869;28;20098;-72
2021/12/20 04:55:22;;;;;;;12.30;2.72;;;4.10;99.90;;;;;;5095898;28;20043;-72
2021/12/20 04:57:49;;;;;;;14.57;2.53;;;4.10;99.90;;;;;;5095679;28;20036;-72
2021/12/20 05:00:18;;;;;;;16.85;3.53;;;4.10;99.90;;;;;;5095982;28;20084;-72
2021/12/20 05:02:44;;;;;;;8.75;2.28;;;4.10;99.90;;;;;;5095725;28;20052;-72
2021/12/20 05:05:10;;;;;;;11.82;3.10;;;4.00;99.90;;;;;;5095576;28;20399;-72
2021/12/20 05:07:38;;;;;;;12.27;2.85;;;4.00;99.90;;;;;;5094121;28;20078;-72
2021/12/20 05:10:08;;;;;;;15.88;3.35;;;4.00;99.90;;;;;;5095888;28;20093;-72
2021/12/20 05:12:34;;;;;;;10.07;2.58;;;4.00;99.90;;;;;;5095520;28;20066;-72
2021/12/20 05:14:59;;;;;;;7.50;2.95;;;3.90;99.90;;;;;;5095410;28;20126;-72
2021/12/20 05:17:25;;;;;;;10.80;3.58;;;3.90;99.90;;;;;;5093704;28;20048;-72
2021/12/20 05:19:50;;;;;;;19.90;3.80;;;3.90;99.90;;;;;;5095441;28;20047;-72
2021/12/20 05:22:16;;;;;;;8.02;2.03;;;3.90;99.90;;;;;;5094228;28;20047;-72
2021/12/20 05:24:41;;;;;;;7.63;2.63;;;3.80;99.90;;;;;;5093985;28;20118;-72
2021/12/20 05:27:07;;;;;;;9.80;2.50;;;3.80;99.90;;;;;;5095007;28;20403;-72
2021/12/20 05:29:33;;;;;;;13.48;2.85;;;3.80;99.90;;;;;;5095356;28;20043;-72
2021/12/20 05:32:02;;;;;;;9.20;3.33;;;3.80;99.90;;;;;;5095599;28;20432;-72
2021/12/20 05:34:27;;;;;;;8.35;2.47;;;3.80;99.90;;;;;;5095129;28;20047;-72
2021/12/20 05:36:53;;;;;;;13.90;3.40;;;3.80;99.90;;;;;;5093409;28;20395;-72
2021/12/20 05:39:19;;;;;;;9.80;4.05;;;3.80;99.90;;;;;;5095023;28;20072;-72
2021/12/20 05:41:44;;;;;;;8.77;2.92;;;3.70;99.90;;;;;;5094724;28;20040;-72
2021/12/20 05:44:11;;;;;;;10.10;2.78;;;3.70;99.90;;;;;;5094666;28;20040;-72
2021/12/20 05:46:36;;;;;;;17.30;3.42;;;3.70;99.90;;;;;;5094688;28;20093;-72
2021/12/20 05:49:02;;;;;;;10.07;2.60;;;3.60;99.90;;;;;;5095243;28;20032;-72
2021/12/20 05:51:28;;;;;;;11.15;3.03;;;3.60;99.90;;;;;;5094857;28;20043;-71
2021/12/20 05:53:53;;;;;;;14.57;2.95;;;3.50;99.90;;;;;;5093756;28;20050;-71
2021/12/20 05:56:19;;;;;;;10.75;2.90;;;3.50;99.90;;;;;;5094538;28;20070;-71
2021/12/20 05:58:45;;;;;;;7.90;2.60;;;3.50;99.90;;;;;;5094924;28;20480;-71
2021/12/20 06:01:10;;;;;;;10.85;2.30;;;3.50;99.90;;;;;;5095095;28;20077;-71
2021/12/20 06:03:36;;;;;;;7.85;2.42;;;3.50;99.90;;;;;;5094873;28;20499;-71
2021/12/20 06:06:02;;;;;;;10.35;3.28;;;3.50;99.90;;;;;;5093276;28;20071;-71
2021/12/20 06:08:27;;;;;;;13.25;3.53;;;3.50;99.90;;;;;;5094441;28;20044;-72
2021/12/20 06:10:53;;;;;;;17.95;5.32;;;3.50;99.90;;;;;;5094263;28;20075;-72
2021/12/20 06:13:18;;;;;;;13.13;2.58;;;3.40;99.90;;;;;;5093360;28;20442;-71
2021/12/20 06:15:44;;;;;;;9.77;3.85;;;3.40;99.90;;;;;;5092542;28;20047;-71
2021/12/20 06:18:09;;;;;;;17.85;3.67;;;3.40;99.90;;;;;;5094139;28;20154;-71
2021/12/20 06:20:35;;;;;;;13.32;2.50;;;3.30;99.90;;;;;;5094632;28;20044;-71
2021/12/20 06:23:01;;;;;;;11.13;3.05;;;3.30;99.90;;;;;;5093243;28;20492;-71
2021/12/20 06:25:26;;;;;;;13.48;2.95;;;3.30;99.90;;;;;;5099279;28;20043;-71
2021/12/20 06:27:53;;;;;;;17.55;3.83;;;3.30;99.90;;;;;;5101955;28;20063;-71
2021/12/20 06:30:19;;;;;;;15.20;3.03;;;3.30;99.90;;;;;;5095453;28;20046;-71
2021/12/20 06:32:46;;;;;;;10.35;3.22;;;3.30;99.90;;;;;;5093948;28;20043;-71
2021/12/20 06:35:15;;;;;;;12.52;3.70;;;3.30;99.90;;;;;;5093758;28;20115;-70
2021/12/20 06:37:43;;;;;;;9.23;3.00;;;3.30;99.90;;;;;;5092404;28;20101;-70
2021/12/20 06:40:10;;;;;;;13.93;2.67;;;3.30;99.90;;;;;;5093815;28;20052;-70
2021/12/20 06:42:38;;;;;;;14.85;3.55;;;3.20;99.90;;;;;;5094018;28;20036;-70
2021/12/20 06:45:05;;;;;;;16.95;3.28;;;3.10;99.90;;;;;;5093782;28;20368;-70
2021/12/20 06:47:31;;;;;;;9.68;2.92;;;3.10;99.90;;;;;;5092257;28;20123;-70
2021/12/20 06:49:57;;;;;;;13.55;2.88;;;3.10;99.90;;;;;;5093691;28;20036;-70
2021/12/20 06:52:23;;;;;;;13.30;2.78;;;3.00;99.90;;;;;;5093693;28;20036;-70
2021/12/20 06:54:50;;;;;;;14.10;4.40;;;3.00;99.90;;;;;;5091527;28;20055;-70
2021/12/20 06:57:16;;;;;;;13.63;4.45;;;3.00;99.90;;;;;;5092120;28;20122;-70
2021/12/20 06:59:41;;;;;;;9.95;3.00;;;2.90;99.90;;;;;;5094179;28;20166;-70
2021/12/20 07:02:07;;;;;;;12.55;3.28;;;2.90;99.90;;;;;;5093731;28;20038;-71
2021/12/20 07:04:32;;;;;;;11.82;3.20;;;2.80;99.90;;;;;;5092436;28;20522;-70
2021/12/20 07:06:59;;;;;;;9.88;3.28;;;2.80;99.90;;;;;;5093029;28;20036;-69
2021/12/20 07:09:25;;;;;;;15.82;3.72;;;2.70;99.90;;;;;;5093575;28;20036;-70
2021/12/20 07:11:51;;;;;;;12.35;3.40;;;2.70;99.90;;;;;;5109445;28;20194;-69
2021/12/20 07:14:16;;;;;;;11.38;3.28;;;2.70;99.90;;;;;;5093613;28;20075;-70
2021/12/20 07:16:42;;;;;;;10.52;3.15;;;2.70;99.90;;;;;;5092963;28;20036;-70
2021/12/20 07:19:08;;;;;;;18.75;4.28;;;2.60;99.90;;;;;;5093824;28;20472;-69
2021/12/20 07:21:34;;;;;;;11.80;3.40;;;2.60;99.90;;;;;;5092551;28;20644;-70
2021/12/20 07:23:59;;;;;;;14.80;4.25;;;2.60;99.90;;;;;;5093832;28;20044;-70
2021/12/20 07:26:25;;;;;;;11.63;3.28;;;2.60;99.90;;;;;;5091735;28;20396;-70
2021/12/20 07:28:51;;;;;;;13.23;3.35;;;2.60;99.90;;;;;;5093384;28;20165;-70
2021/12/20 07:31:16;;;;;;;11.38;3.83;;;2.60;99.90;;;;;;5093218;28;20522;-70
2021/12/20 07:33:44;;;;;;;10.13;3.65;;;2.60;99.90;;;;;;5093766;28;20148;-70
2021/12/20 07:36:09;;;;;;;16.65;4.05;;;2.60;99.90;;;;;;5093029;28;20044;-70
2021/12/20 07:38:36;;;;;;;13.32;4.05;;;2.60;99.90;;;;;;5093334;28;20097;-70
2021/12/20 07:41:02;;;;;;;9.95;3.60;;;2.60;99.90;;;;;;5092962;28;20496;-70
2021/12/20 07:43:28;;;;;;;14.18;5.55;;;2.50;99.90;;;;;;5093524;28;20032;-69
2021/12/20 07:45:54;;;;;;;16.45;4.25;;;2.50;99.90;;;;;;5092817;28;20055;-70
2021/12/20 07:48:21;;;;;;;13.75;3.80;;;2.50;99.90;;;;;;5092007;28;20123;-70
2021/12/20 07:50:48;;;;;;;15.30;4.43;;;2.50;99.90;;;;;;5091938;28;20082;-70
2021/12/20 07:53:15;;;;;;;12.50;3.40;;;2.50;99.90;;;;;;5092856;28;20055;-70
2021/12/20 07:55:41;;;;;;;14.35;3.72;;;2.50;99.90;;;;;;5092832;28;20032;-70
2021/12/20 07:58:07;;;;;;;15.07;3.58;;;2.50;99.90;;;;;;5093615;28;20048;-70
2021/12/20 08:00:33;;;;;;;14.80;4.05;;;2.40;99.90;;;;;;5092863;28;20085;-70
2021/12/20 08:02:59;;;;;;;8.70;3.30;;;2.50;99.90;;;;;;5092170;28;20047;-70
2021/12/20 08:05:26;;;;;;;10.75;4.05;;;2.50;99.90;;;;;;5094102;28;20119;-70
2021/12/20 08:07:52;;;;;;;12.63;4.57;;;2.50;99.90;;;;;;5096986;28;20051;-70
2021/12/20 08:10:24;;;;;;;10.40;3.95;;;2.50;99.90;;;;;;5096968;28;20040;-70
2021/12/20 08:12:50;;;;;;;12.75;4.00;;;2.50;99.90;;;;;;5096652;28;20059;-70
2021/12/20 08:15:17;;;;;;;11.32;4.32;;;2.50;99.90;;;;;;5096879;28;20072;-70
2021/12/20 08:17:43;;;;;;;14.65;4.05;;;2.50;99.90;;;;;;5096365;28;20040;-69
2021/12/20 08:20:10;;;;;;;13.07;3.30;;;2.60;99.90;;;;;;5096726;28;20037;-70
2021/12/20 08:22:36;;;;;;;11.40;4.00;;;2.50;99.90;;;;;;5096734;28;20047;-70
2021/12/20 08:25:03;;;;;;;13.35;4.32;;;2.60;99.90;;;;;;5096718;28;20379;-70
2021/12/20 08:27:29;;;;;;;14.10;4.82;;;2.60;99.90;;;;;;5094724;28;20067;-70
2021/12/20 08:29:55;;;;;;;14.15;4.93;;;2.60;99.90;;;;;;5095354;28;20071;-70
2021/12/20 08:32:20;;;;;;;12.77;4.93;;;2.60;99.90;;;;;;5096373;28;20032;-70
2021/12/20 08:34:46;;;;;;;11.98;4.18;;;2.60;99.90;;;;;;5096321;28;20075;-70
2021/12/20 08:37:12;;;;;;;14.80;4.60;;;2.70;99.90;;;;;;5094704;28;20028;-70
2021/12/20 08:39:37;;;;;;;14.73;4.35;;;2.70;99.90;;;;;;5095523;28;20388;-70
2021/12/20 08:42:03;;;;;;;13.40;4.07;;;2.70;99.90;;;;;;5096119;28;20472;-70
2021/12/20 08:44:30;;;;;;;10.32;4.28;;;2.70;99.90;;;;;;5096162;28;20097;-70
2021/12/20 08:46:58;;;;;;;14.18;4.88;;;2.70;99.90;;;;;;5095589;28;20071;-69
2021/12/20 08:49:23;;;;;;;13.70;4.68;;;2.70;99.90;;;;;;5095793;28;20430;-69
2021/12/20 08:51:49;;;;;;;16.40;7.53;;;2.70;99.90;;;;;;5094633;28;20124;-69
2021/12/20 08:54:15;;;;;;;17.92;5.63;;;2.80;99.90;;;;;;5096316;28;20071;-70
2021/12/20 08:56:41;;;;;;;18.05;4.95;;;2.80;99.90;;;;;;5094160;28;20044;-70
2021/12/20 08:59:08;;;;;;;13.00;4.93;;;2.80;99.90;;;;;;5095756;28;20051;-69
2021/12/20 09:01:35;;;;;;;16.10;5.07;;;2.80;99.90;;;;;;5096097;28;20040;-69
2021/12/20 09:04:02;;;;;;;13.27;5.95;;;2.80;99.90;;;;;;5095750;28;20190;-69
2021/12/20 09:06:28;;;;;;;17.95;6.60;;;2.80;99.90;;;;;;5095655;28;20036;-69
2021/12/20 09:08:55;;;;;;;13.68;6.63;;;2.80;99.90;;;;;;5095664;28;20353;-70
2021/12/20 09:11:25;;;;;;;14.90;6.13;;;2.90;99.90;;;;;;5095584;28;20044;-69
2021/12/20 09:13:51;;;;;;;16.55;5.50;;;2.90;99.90;;;;;;5095900;28;20488;-70
2021/12/20 09:16:17;;;;;;;10.50;4.82;;;3.00;99.90;;;;;;5095121;28;20044;-69
2021/12/20 09:18:43;;;;;;;12.80;5.75;;;3.00;99.90;;;;;;5093289;28;20475;-70
2021/12/20 09:21:10;;;;;;;17.30;5.68;;;3.00;99.90;;;;;;5094190;28;20044;-70
2021/12/20 09:23:36;;;;;;;18.35;6.90;;;3.10;99.90;;;;;;5095408;28;20036;-70
2021/12/20 09:26:03;;;;;;;17.30;6.20;;;3.10;99.90;;;;;;5094915;28;20120;-70
2021/12/20 09:28:29;;;;;;;15.02;6.95;;;3.10;99.90;;;;;;5095142;28;20126;-70
2021/12/20 09:30:54;;;;;;;21.90;7.18;;;3.20;99.90;;;;;;5095433;28;20079;-70
2021/12/20 09:33:20;;;;;;;23.40;8.43;;;3.20;99.90;;;;;;5093855;28;20048;-70
2021/12/20 09:35:46;;;;;;;20.48;7.03;;;3.30;99.90;;;;;;5095106;28;20400;-70
2021/12/20 09:38:16;;;;;;;12.10;5.90;;;3.40;99.90;;;;;;5094851;28;20079;-70
2021/12/20 09:41:02;;;;;;;16.48;6.50;;;3.40;99.90;;;;;;5095627;28;20078;-70
2021/12/20 09:43:28;;;;;;;11.40;6.30;;;3.40;99.90;;;;;;5095239;28;20036;-70
2021/12/20 09:45:56;;;;;;;19.00;6.72;;;3.40;99.90;;;;;;5093373;28;20032;-69
2021/12/20 09:48:21;;;;;;;21.67;6.95;;;3.50;99.90;;;;;;5094081;28;20476;-70
2021/12/20 09:50:47;;;;;;;20.25;6.50;;;3.50;99.90;;;;;;5095089;28;20050;-69
2021/12/20 09:53:14;;;;;;;17.67;6.25;;;3.60;99.90;;;;;;5094965;28;20567;-70
2021/12/20 09:55:46;;;;;;;16.95;5.25;;;3.60;99.90;;;;;;5094359;28;20047;-70
2021/12/20 09:58:12;;;;;;;15.00;5.72;;;3.70;99.90;;;;;;5094681;28;20051;-69
2021/12/20 10:00:38;;;;;;;11.30;5.78;;;3.70;99.90;;;;;;5094528;28;20044;-70
2021/12/20 10:03:03;;;;;;;13.23;5.35;;;3.70;99.90;;;;;;5094740;28;20032;-70
2021/12/20 10:05:29;;;;;;;12.02;6.25;;;3.80;99.90;;;;;;5094361;28;20032;-70
2021/12/20 10:07:56;;;;;;;14.95;5.40;;;3.80;99.90;;;;;;5092950;28;20089;-70
2021/12/20 10:10:43;;;;;;;15.15;5.88;;;3.90;99.90;;;;;;5094626;28;20091;-70
2021/12/20 10:13:32;;;;;;;17.45;6.38;;;3.90;99.90;;;;;;5093689;28;20476;-70
2021/12/20 10:15:59;;;;;;;20.58;7.53;;;4.00;99.90;;;;;;5093997;28;20075;-70
2021/12/20 10:18:26;;;;;;;23.05;7.28;;;4.10;99.90;;;;;;5094448;28;20040;-70
2021/12/20 10:20:57;;;;;;;19.33;6.95;;;4.10;99.90;;;;;;5094147;28;20040;-70
2021/12/20 10:23:32;;;;;;;19.48;8.18;;;4.20;99.90;;;;;;5094387;28;20047;-70
2021/12/20 10:26:13;;;;;;;21.83;6.28;;;4.20;99.90;;;;;;5093881;28;20085;-70
2021/12/20 10:28:40;;;;;;;30.75;7.95;;;4.30;99.90;;;;;;5094246;28;20418;-70
2021/12/20 10:31:18;;;;;;;35.83;10.18;;;4.40;99.90;;;;;;5093951;28;20195;-70
2021/12/20 10:33:55;;;;;;;25.63;6.60;;;4.40;99.90;;;;;;5094191;28;20044;-70
2021/12/20 10:36:22;;;;;;;27.90;7.88;;;4.50;99.90;;;;;;5093652;28;20047;-71
2021/12/20 10:38:56;;;;;;;26.65;7.57;;;4.50;99.90;;;;;;5092981;28;20044;-70
2021/12/20 10:41:39;;;;;;;25.67;7.20;;;4.60;99.90;;;;;;5093916;28;20036;-70
2021/12/20 10:44:18;;;;;;;21.15;7.18;;;4.60;99.90;;;;;;5092907;28;20051;-71
2021/12/20 10:46:49;;;;;;;31.25;7.55;;;4.70;99.90;;;;;;5093667;28;20643;-71
2021/12/20 10:49:16;;;;;;;33.88;8.07;;;4.70;99.90;;;;;;5093591;28;20430;-70
2021/12/20 10:51:45;;;;;;;23.45;7.18;;;4.70;99.90;;;;;;5093742;28;20047;-70
2021/12/20 10:54:15;;;;;;;31.08;7.15;;;4.70;99.90;;;;;;5093539;28;20036;-70
2021/12/20 10:56:52;;;;;;;27.73;7.53;;;4.70;99.90;;;;;;5093583;28;20125;-70
2021/12/20 10:59:24;;;;;;;36.28;8.55;;;4.80;99.90;;;;;;5093950;28;20043;-71
2021/12/20 11:04:46;;;;;;;27.50;5.95;;;4.80;99.90;;;;;;5093542;28;20044;-70
2021/12/20 11:10:08;;;;;;;29.95;7.10;;;4.80;99.90;;;;;;5073792;28;20514;-71
2021/12/20 11:12:34;;;;;;;25.10;6.93;;;4.90;99.90;;;;;;5092688;28;20476;-70
2021/12/20 11:15:09;;;;;;;36.70;8.18;;;4.90;99.90;;;;;;5093373;28;20051;-70
2021/12/20 11:17:40;;;;;;;25.20;7.35;;;5.00;99.90;;;;;;5091672;28;20097;-70
2021/12/20 11:20:07;;;;;;;17.13;6.28;;;5.00;99.90;;;;;;5093437;28;20190;-70
2021/12/20 11:22:33;;;;;;;20.80;6.97;;;5.00;99.90;;;;;;5093327;28;20446;-70
2021/12/20 11:25:04;;;;;;;25.42;6.93;;;5.00;99.90;;;;;;5093659;28;20033;-70
2021/12/20 11:27:52;;;;;;;28.42;7.40;;;5.00;99.90;;;;;;5092976;28;20438;-70
2021/12/20 11:30:26;;;;;;;21.15;7.10;;;5.00;99.90;;;;;;5093356;28;20117;-70
2021/12/20 11:32:52;;;;;;;23.45;6.45;;;5.10;99.90;;;;;;5092077;28;20044;-70
2021/12/20 11:35:20;;;;;;;21.67;6.88;;;5.10;99.90;;;;;;5093582;28;20040;-71
2021/12/20 11:37:46;;;;;;;23.45;6.78;;;5.10;99.90;;;;;;5092890;28;20040;-70
2021/12/20 11:40:14;;;;;;;24.02;6.20;;;5.10;99.90;;;;;;5091901;28;20415;-70
2021/12/20 11:42:40;;;;;;;27.00;7.70;;;5.10;99.90;;;;;;5095898;28;20074;-70
2021/12/20 11:45:08;;;;;;;17.92;5.95;;;5.10;99.90;;;;;;5097155;28;20399;-70
2021/12/20 11:47:48;;;;;;;19.92;5.88;;;5.20;99.90;;;;;;5096643;28;20054;-67
2021/12/20 11:50:18;;;;;;;27.67;6.30;;;5.40;99.90;;;;;;5097003;28;20051;-68
2021/12/20 11:52:47;;;;;;;22.60;5.57;;;5.50;99.90;;;;;;5100451;28;20036;-68
2021/12/20 11:55:20;;;;;;;21.95;5.40;;;5.60;99.90;;;;;;5110258;28;20039;-67
2021/12/20 11:57:57;;;;;;;20.73;5.70;;;5.70;99.90;;;;;;5099012;28;20433;-67
2021/12/20 12:00:26;;;;;;;17.13;4.88;;;5.80;99.90;;;;;;5116198;28;20043;-68
2021/12/20 12:02:55;;;;;;;24.42;5.22;;;5.90;99.90;;;;;;5113831;28;20057;-68
2021/12/20 12:05:53;;;;;;;23.52;6.93;;;6.00;99.90;;;;;;5106045;28;20443;-68
2021/12/20 12:08:42;;;;;;;22.75;4.93;;;6.00;99.90;;;;;;5095407;28;20048;-68
2021/12/20 12:11:08;;;;;;;18.35;4.32;;;6.10;99.90;;;;;;5095617;28;20492;-67
2021/12/20 12:16:27;;;;;;;21.20;3.95;;;6.20;99.90;;;;;;5096351;28;20114;-67
2021/12/20 12:18:55;;;;;;;17.90;3.92;;;6.20;99.90;;;;;;5096461;28;20507;-67
2021/12/20 12:21:32;;;;;;;16.08;4.25;;;6.20;99.90;;;;;;5096332;28;20438;-67
2021/12/20 12:24:03;;;;;;;13.48;3.95;;;6.30;99.90;;;;;;5095558;28;20488;-68
2021/12/20 12:26:39;;;;;;;12.45;4.00;;;6.30;99.90;;;;;;5096363;28;20036;-67
2021/12/20 12:29:06;;;;;;;12.90;3.40;;;6.30;99.90;;;;;;5101748;28;20036;-68
2021/12/20 12:31:52;;;;;;;11.15;3.72;;;6.30;99.90;;;;;;5095145;28;20043;-68
2021/12/20 12:34:18;;;;;;;16.67;4.35;;;6.30;99.90;;;;;;5095129;28;20048;-68
2021/12/20 12:36:45;;;;;;;11.48;4.35;;;6.30;99.90;;;;;;5095885;28;20047;-68
2021/12/20 12:39:28;;;;;;;14.95;3.85;;;6.30;99.90;;;;;;5095249;28;20039;-67
2021/12/20 12:42:01;;;;;;;12.82;3.72;;;6.30;99.90;;;;;;5095374;28;20488;-68
2021/12/20 12:44:29;;;;;;;14.70;4.75;;;6.30;99.90;;;;;;5096539;28;20070;-67
2021/12/20 12:47:13;;;;;;;17.38;4.53;;;6.30;99.90;;;;;;5096075;28;20047;-67
2021/12/20 12:49:42;;;;;;;12.50;4.20;;;6.40;99.90;;;;;;5096096;28;20036;-67
2021/12/20 12:52:29;;;;;;;15.40;4.07;;;6.40;99.90;;;;;;5094613;28;20040;-68
2021/12/20 12:55:05;;;;;;;14.20;4.15;;;6.40;99.90;;;;;;5096653;28;20369;-68
2021/12/20 12:57:33;;;;;;;14.07;2.97;;;6.40;99.90;;;;;;5095798;28;20111;-67
2021/12/20 13:00:01;;;;;;;14.68;3.08;;;6.40;99.90;;;;;;5094377;28;20048;-68
2021/12/20 13:02:29;;;;;;;12.20;2.80;;;6.40;99.90;;;;;;5095838;28;20040;-67
2021/12/20 13:04:58;;;;;;;16.73;3.78;;;6.40;99.90;;;;;;5095970;28;20415;-68
2021/12/20 13:07:30;;;;;;;14.52;3.80;;;6.30;99.90;;;;;;5094931;28;20036;-68
2021/12/20 13:09:59;;;;;;;11.20;2.80;;;6.30;99.90;;;;;;5077350;28;20496;-66
2021/12/20 13:17:48;;;;;;;11.15;3.10;;;6.30;99.90;;;;;;5100213;28;20044;-67
2021/12/20 13:20:24;;;;;;;16.77;3.63;;;6.30;99.90;;;;;;5095623;28;20082;-68